Time;durP1;ratioP1;P1;durP2;ratioP2;P2;SDS_P1;SDS_P2;PMS_P1;PMS_P2;Temp;Humidity;BMP_temperature;BMP_pressure;BME280_temperature;BME280_humidity;BME280_pressure;Samples;Min_cycle;Max_cycle;Signal;HPM_P1;HPM_P2
2023/01/27 00:03:27;;;;;;;1.25;1.15;;;;;;;20.49;38.72;101047.91;21051977;28;20040;-63
2023/01/27 00:13:38;;;;;;;1.30;1.10;;;;;;;20.49;38.77;101067.34;21079148;28;20098;-63
2023/01/27 00:34:07;;;;;;;1.40;1.30;;;;;;;20.47;38.69;101119.56;21007544;28;20037;-63
2023/01/27 00:44:11;;;;;;;1.65;1.45;;;;;;;20.41;39.13;101109.56;21019991;28;20037;-63
2023/01/27 00:54:13;;;;;;;7.28;2.20;;;;;;;20.46;38.81;101123.47;20996556;28;20415;-63
2023/01/27 01:04:17;;;;;;;5.85;1.85;;;;;;;20.45;38.72;101144.03;20995562;28;20040;-63
2023/01/27 01:14:18;;;;;;;1.63;1.52;;;;;;;20.41;38.81;101146.50;20994075;28;20609;-62
2023/01/27 01:24:20;;;;;;;1.52;1.40;;;;;;;20.37;39.21;101158.44;20994786;28;20032;-63
2023/01/27 01:34:21;;;;;;;5.03;1.70;;;;;;;20.33;38.73;101165.66;20994183;28;20098;-62
2023/01/27 01:44:33;;;;;;;2.72;1.52;;;;;;;20.30;38.76;101179.00;20993405;28;20052;-63
2023/01/27 01:54:43;;;;;;;3.40;1.73;;;;;;;20.30;39.16;101215.13;20992849;28;20565;-63
2023/01/27 02:05:03;;;;;;;2.78;1.90;;;;;;;20.30;38.83;101222.63;20992050;28;20036;-63
2023/01/27 02:15:08;;;;;;;;;;;;;;;20.27;39.02;101235.13;20992635;28;20490;-63
2023/01/27 02:25:35;;;;;;;2.10;1.90;;;;;;;20.24;38.90;101243.97;21002920;28;19923;-63
2023/01/27 02:35:43;;;;;;;1.60;1.50;;;;;;;20.25;38.98;101236.47;21000591;28;20438;-63
2023/01/27 02:45:47;;;;;;;2.53;1.80;;;;;;;20.24;38.67;101252.31;21034281;28;20040;-62
2023/01/27 02:55:54;;;;;;;3.05;1.95;;;;;;;20.24;38.46;101251.47;21089882;28;20483;-62
2023/01/27 03:06:02;;;;;;;1.80;1.50;;;;;;;20.00;38.61;101209.38;21089140;28;20097;-63
2023/01/27 03:26:25;;;;;;;1.83;1.50;;;;;;;20.18;38.54;101256.19;21087648;28;20028;-62
2023/01/27 03:46:51;;;;;;;1.63;1.52;;;;;;;20.21;37.91;101255.66;21048751;28;20052;-62
2023/01/27 03:56:52;;;;;;;2.85;1.70;;;;;;;20.21;38.00;101277.03;21001289;28;20033;-63
2023/01/27 04:06:55;;;;;;;2.03;1.55;;;;;;;20.26;37.61;101290.97;21001068;28;20036;-63
2023/01/27 04:17:09;;;;;;;1.48;1.30;;;;;;;20.20;37.66;101276.19;20999617;28;20106;-62
2023/01/27 04:27:17;;;;;;;1.40;1.30;;;;;;;20.34;37.72;101304.34;20998421;28;20037;-63
2023/01/27 04:37:19;;;;;;;1.70;1.27;;;;;;;20.19;37.75;101287.56;20998214;28;20407;-63
2023/01/27 04:47:23;;;;;;;1.33;1.23;;;;;;;20.42;37.86;101344.69;20997642;28;20040;-62
2023/01/27 04:57:27;;;;;;;1.92;1.40;;;;;;;20.44;37.86;101350.84;20996593;28;20040;-63
2023/01/27 05:07:31;;;;;;;1.27;1.17;;;;;;;20.45;37.94;101358.91;20995754;28;20062;-62
2023/01/27 05:17:34;;;;;;;1.60;1.50;;;;;;;20.50;37.54;101369.25;20995979;28;20070;-62
2023/01/27 05:27:35;;;;;;;1.30;1.20;;;;;;;20.52;37.33;101369.81;20995101;28;20472;-62
2023/01/27 05:37:39;;;;;;;1.30;1.17;;;;;;;20.52;37.59;101383.72;21085787;28;20044;-63
2023/01/27 05:47:47;;;;;;;2.08;1.42;;;;;;;20.53;37.68;101397.38;21102965;28;20040;-62
2023/01/27 05:57:48;;;;;;;3.13;1.30;;;;;;;20.54;37.38;101412.09;21161591;28;20039;-62
2023/01/27 06:07:52;;;;;;;1.35;1.20;;;;;;;20.53;37.38;101424.34;21067507;28;20043;-62
2023/01/27 06:17:54;;;;;;;2.60;1.30;;;;;;;20.53;37.35;101435.47;20992211;28;20040;-62
2023/01/27 06:27:58;;;;;;;1.08;0.98;;;;;;;20.53;37.15;101452.13;21038889;28;20483;-62
2023/01/27 06:38:01;;;;;;;1.20;1.05;;;;;;;20.53;37.27;101471.59;21074125;28;20548;-62
2023/01/27 06:48:03;;;;;;;1.60;1.38;;;;;;;20.49;37.17;101476.00;21074898;28;20063;-61
2023/01/27 06:58:08;;;;;;;1.25;1.15;;;;;;;20.51;37.24;101487.69;21073177;28;20048;-62
2023/01/27 07:08:10;;;;;;;1.10;1.00;;;;;;;20.50;36.90;101502.72;21077642;28;20036;-61
2023/01/27 07:18:13;;;;;;;1.50;1.30;;;;;;;20.51;37.03;101504.38;21060143;28;20044;-63
2023/01/27 07:28:14;;;;;;;1.60;1.27;;;;;;;20.49;37.11;101512.16;21054277;28;20047;-63
2023/01/27 07:38:15;;;;;;;3.92;1.15;;;;;;;20.50;37.28;101530.50;21072719;28;20040;-64
2023/01/27 07:48:17;;;;;;;2.33;1.08;;;;;;;20.49;37.41;101534.41;21152453;27;20051;-64
2023/01/27 07:58:18;;;;;;;1.20;1.10;;;;;;;20.48;37.38;101538.25;21090281;28;20036;-63
2023/01/27 08:08:19;;;;;;;1.30;1.20;;;;;;;20.48;37.31;101538.25;21077121;28;20044;-64
2023/01/27 08:18:21;;;;;;;1.42;1.10;;;;;;;20.47;37.36;101548.53;21082294;28;20032;-63
2023/01/27 08:28:26;;;;;;;1.50;1.17;;;;;;;20.48;37.38;101546.59;20999103;28;20033;-62
2023/01/27 08:38:27;;;;;;;1.15;1.05;;;;;;;20.26;37.15;101519.69;21013266;28;20032;-62
2023/01/27 08:48:35;;;;;;;1.10;1.00;;;;;;;20.47;37.12;101547.66;21165140;28;20069;-62
2023/01/27 08:58:40;;;;;;;1.33;1.10;;;;;;;20.47;36.99;101547.66;21058492;28;20045;-63
2023/01/27 09:08:43;;;;;;;1.20;1.10;;;;;;;20.46;37.42;101551.56;21007721;28;20036;-62
2023/01/27 09:18:47;;;;;;;1.10;0.95;;;;;;;20.44;37.30;101554.63;21033172;28;20032;-63
2023/01/27 09:28:48;;;;;;;1.20;1.10;;;;;;;20.43;36.93;101579.88;21130136;28;20036;-62
2023/01/27 09:39:00;;;;;;;1.15;1.05;;;;;;;20.41;36.96;101577.38;21069316;28;20037;-63
2023/01/27 09:49:25;;;;;;;1.40;1.20;;;;;;;20.41;37.01;101594.06;21036927;28;20052;-63
2023/01/27 10:00:00;;;;;;;1.40;1.10;;;;;;;20.38;37.31;101604.84;21046627;28;20056;-63
2023/01/27 10:10:05;;;;;;;1.45;1.20;;;;;;;20.37;36.79;101609.56;20995715;28;20052;-63
2023/01/27 10:20:15;;;;;;;1.10;1.00;;;;;;;20.36;36.98;101618.19;21074970;28;20040;-63
2023/01/27 10:30:31;;;;;;;0.98;0.98;;;;;;;20.34;36.98;101648.16;21075681;28;20036;-63
2023/01/27 10:40:50;;;;;;;1.65;1.20;;;;;;;20.33;36.92;101660.38;21076300;28;20036;-63
2023/01/27 10:51:16;;;;;;;1.10;1.00;;;;;;;20.27;36.96;101682.56;21060859;28;20044;-62
2023/01/27 11:01:24;;;;;;;1.02;0.93;;;;;;;20.31;36.43;101700.41;21059678;28;20078;-62
2023/01/27 11:11:48;;;;;;;1.20;1.07;;;;;;;20.28;36.23;101713.97;21067225;28;20044;-62
2023/01/27 11:21:52;;;;;;;1.13;1.02;;;;;;;20.23;36.33;101723.06;21051390;28;20122;-62
2023/01/27 11:32:22;;;;;;;0.90;0.77;;;;;;;20.19;36.45;101708.00;21023071;28;20037;-62
2023/01/27 11:42:31;;;;;;;1.15;1.08;;;;;;;20.14;36.09;101699.63;21062892;28;20121;-62
2023/01/27 11:52:32;;;;;;;1.00;0.90;;;;;;;20.21;36.53;101739.19;21052077;28;20048;-62
2023/01/27 12:03:02;;;;;;;1.02;0.93;;;;;;;20.13;36.35;101753.50;21031230;28;20394;-62
2023/01/27 12:13:23;;;;;;;1.17;1.08;;;;;;;19.96;36.87;101752.69;21049815;28;20108;-62
2023/01/27 12:23:31;;;;;;;1.23;1.13;;;;;;;20.17;36.67;101795.53;21027613;28;20036;-63
2023/01/27 12:33:35;;;;;;;1.10;1.00;;;;;;;20.16;36.02;101825.25;21046046;28;20398;-63
2023/01/27 12:43:57;;;;;;;0.82;0.82;;;;;;;20.11;36.13;101852.94;21033261;28;20055;-63
2023/01/27 12:54:24;;;;;;;1.00;0.90;;;;;;;20.16;36.37;101868.84;21043821;28;20106;-63
2023/01/27 13:04:27;;;;;;;0.80;0.80;;;;;;;20.24;36.28;101899.84;21037094;28;20044;-62
2023/01/27 13:14:38;;;;;;;3.15;0.80;;;;;;;20.28;36.30;101914.09;21049371;28;20142;-63
2023/01/27 13:24:41;;;;;;;0.98;0.82;;;;;;;20.34;36.43;101948.38;21049110;28;20032;-62
2023/01/27 13:34:51;;;;;;;1.85;0.90;;;;;;;20.37;36.33;101962.59;21042851;28;20059;-63
2023/01/27 13:45:12;;;;;;;1.10;1.00;;;;;;;20.23;36.42;101953.75;21028244;28;20036;-63
2023/01/27 13:55:30;;;;;;;1.10;1.00;;;;;;;20.46;36.43;101977.78;21036854;28;20060;-62
2023/01/27 14:05:48;;;;;;;1.25;0.77;;;;;;;20.49;36.65;101990.38;21037352;28;20036;-63
2023/01/27 14:16:02;;;;;;;1.02;0.93;;;;;;;20.54;36.26;101999.63;21040610;28;20048;-63
2023/01/27 14:26:04;;;;;;;1.08;0.85;;;;;;;20.59;36.25;101996.09;21045003;28;20048;-63
2023/01/27 14:36:26;;;;;;;19.58;2.00;;;;;;;20.59;36.71;102009.16;21075262;28;20044;-63
2023/01/27 14:46:39;;;;;;;3.53;1.15;;;;;;;20.60;36.49;102022.81;21116265;28;20070;-63
2023/01/27 14:57:21;;;;;;;4.68;1.23;;;;;;;20.60;36.47;102025.56;21104616;28;20040;-63
2023/01/27 15:07:32;;;;;;;2.60;1.40;;;;;;;20.65;36.45;102047.91;21051186;28;20504;-62
2023/01/27 15:17:58;;;;;;;3.65;1.50;;;;;;;20.64;36.28;102025.91;21053284;28;20043;-63
2023/01/27 15:28:01;;;;;;;24.33;3.00;;;;;;;20.73;36.68;102016.06;21043094;28;20045;-61
2023/01/27 15:38:08;;;;;;;7.72;2.35;;;;;;;20.76;36.71;102002.50;21015660;28;20491;-63
2023/01/27 15:48:09;;;;;;;10.75;2.00;;;;;;;20.79;36.57;102004.75;21077121;28;20059;-63
2023/01/27 15:58:21;;;;;;;5.35;1.83;;;;;;;20.78;36.93;102005.84;21039528;28;20483;-61
2023/01/27 16:08:28;;;;;;;5.43;1.98;;;;;;;20.85;36.50;101993.69;21013676;28;20048;-61
2023/01/27 16:18:43;;;;;;;5.25;2.10;;;;;;;20.86;36.84;101967.56;21075673;28;20460;-61
2023/01/27 16:28:48;;;;;;;5.28;1.67;;;;;;;20.84;36.52;101942.78;21026985;28;20400;-62
2023/01/27 16:38:51;;;;;;;4.30;1.95;;;;;;;20.89;36.61;101933.66;21024640;28;20052;-62
2023/01/27 16:48:53;;;;;;;4.15;1.90;;;;;;;20.73;36.28;101891.72;21042050;28;20037;-61
2023/01/27 16:59:01;;;;;;;11.90;1.95;;;;;;;20.95;36.40;101921.53;21023560;28;20058;-61
2023/01/27 17:09:17;;;;;;;2.13;1.43;;;;;;;20.97;35.94;101897.06;21021574;28;20488;-61
2023/01/27 17:19:22;;;;;;;2.72;1.70;;;;;;;20.98;35.83;101882.03;21031704;28;20047;-62
2023/01/27 17:29:27;;;;;;;2.13;1.20;;;;;;;20.86;35.78;101845.16;20999390;28;20047;-61
2023/01/27 17:39:31;;;;;;;6.75;1.50;;;;;;;20.93;35.61;101851.38;21011579;28;20105;-62
2023/01/27 17:49:33;;;;;;;3.35;1.65;;;;;;;21.03;35.33;101846.78;21021789;28;20131;-63
2023/01/27 17:59:39;;;;;;;4.03;1.33;;;;;;;20.92;35.53;101796.81;21033529;28;20044;-62
2023/01/27 18:09:52;;;;;;;3.78;1.95;;;;;;;21.05;35.66;101827.88;21020225;28;20056;-62
2023/01/27 18:20:00;;;;;;;2.85;1.58;;;;;;;21.08;35.29;101825.69;21001455;28;20380;-61
2023/01/27 18:30:14;;;;;;;1.85;1.40;;;;;;;21.02;35.41;101814.47;20999549;28;20369;-63
2023/01/27 18:40:34;;;;;;;3.22;1.50;;;;;;;21.04;35.77;101826.19;21022256;28;20044;-63
2023/01/27 18:50:40;;;;;;;3.03;1.30;;;;;;;21.08;35.11;101832.09;21010172;28;20044;-63
2023/01/27 19:00:46;;;;;;;3.08;1.40;;;;;;;20.98;35.13;101818.91;21020131;28;20056;-62
2023/01/27 19:10:49;;;;;;;3.65;1.73;;;;;;;20.99;35.23;101828.09;21016929;28;20093;-63
2023/01/27 19:20:56;;;;;;;2.85;1.50;;;;;;;21.08;35.78;101846.00;21029032;28;20475;-62
2023/01/27 19:31:00;;;;;;;14.55;2.10;;;;;;;21.10;35.34;101846.56;21025344;28;20452;-61
2023/01/27 19:41:01;;;;;;;3.30;1.30;;;;;;;21.09;35.19;101861.59;21029428;28;20048;-62
2023/01/27 19:51:03;;;;;;;2.30;1.40;;;;;;;21.09;35.13;101867.16;21015191;28;20117;-62
2023/01/27 20:01:04;;;;;;;1.80;1.50;;;;;;;21.10;35.17;101879.97;21017620;28;20041;-61
2023/01/27 20:11:23;;;;;;;2.40;1.50;;;;;;;21.08;35.24;101898.88;21027191;28;20098;-61
2023/01/27 20:21:30;;;;;;;2.13;1.60;;;;;;;21.11;35.31;101906.69;21024231;28;20068;-60
2023/01/27 20:31:31;;;;;;;3.38;1.58;;;;;;;21.10;35.06;101915.31;21007446;28;20044;-62
2023/01/27 20:41:32;;;;;;;3.97;1.50;;;;;;;21.07;34.83;101919.44;21014322;28;20052;-62
2023/01/27 20:51:34;;;;;;;0.98;0.98;;;;;;;21.06;34.85;101935.31;20997785;28;20048;-61
2023/01/27 21:01:35;;;;;;;1.60;1.42;;;;;;;21.10;35.05;101952.31;21014147;28;20052;-62
2023/01/27 21:11:36;;;;;;;1.48;1.38;;;;;;;21.08;34.52;101971.25;21015171;28;20636;-62
2023/01/27 21:21:38;;;;;;;1.63;1.38;;;;;;;21.08;34.68;101979.59;21022339;28;20040;-63
2023/01/27 21:31:45;;;;;;;2.40;1.38;;;;;;;21.10;34.90;101996.03;21020664;28;20102;-62
2023/01/27 21:51:54;;;;;;;3.13;1.50;;;;;;;21.11;34.35;101992.97;21002919;28;20025;-61
2023/01/27 22:01:55;;;;;;;5.65;2.00;;;;;;;21.14;36.02;101986.91;20993814;28;20071;-60
2023/01/27 22:11:57;;;;;;;7.28;1.60;;;;;;;21.22;34.55;101994.81;20992908;28;20037;-61
2023/01/27 22:21:58;;;;;;;2.92;1.50;;;;;;;21.29;34.53;102008.53;21022518;28;20052;-61
2023/01/27 22:31:59;;;;;;;3.90;1.60;;;;;;;21.38;34.68;102031.22;21054550;28;20032;-61
2023/01/27 22:42:03;;;;;;;1.80;1.58;;;;;;;21.43;34.77;102029.34;21059100;28;20040;-62
2023/01/27 22:52:07;;;;;;;4.70;2.05;;;;;;;21.50;34.82;102040.31;21064256;28;20450;-61
2023/01/27 23:02:11;;;;;;;3.78;2.40;;;;;;;21.48;34.46;102028.56;21023075;28;20117;-60
2023/01/27 23:12:16;;;;;;;3.85;1.63;;;;;;;21.57;34.75;102043.72;21021734;28;20414;-60
2023/01/27 23:22:17;;;;;;;2.92;1.35;;;;;;;21.65;34.66;102068.34;21030597;28;20047;-61
2023/01/27 23:32:19;;;;;;;5.55;1.90;;;;;;;21.72;34.74;102096.88;21014231;28;20071;-62
2023/01/27 23:42:23;;;;;;;4.68;2.20;;;;;;;21.81;34.95;102100.91;21036500;28;20073;-62
2023/01/27 23:52:24;;;;;;;5.57;2.30;;;;;;;21.90;34.62;102090.16;21033966;28;20033;-63
